Terminal Aerodrome Forecast
Issued by NWS Quad Cities IA IL

Home | Current Version | Previous Version | Text Only | Print | Product List | Glossary On
Versions: 1 2 3 4 5 6 7 8 9 10 11 12 13 14 15 16 17 18 19 20 21
448
FTUS43 KDVN 030832 AAC
TAFMLI
TAF AMD
KMLI 030832Z 0309/0406 20006KT P6SM SCT004 OVC040
     FM031200 28012KT 3SM -SN BR OVC006
     FM031600 30016G26KT P6SM OVC015
     FM031900 29014G24KT P6SM BKN025=

USA.gov is the U.S. government's official web portal to all federal, state and local government web resources and services.